Time;durP1;ratioP1;P1;durP2;ratioP2;P2;SDS_P1;SDS_P2;PMS_P1;PMS_P2;Temp;Humidity;BMP_temperature;BMP_pressure;BME280_temperature;BME280_humidity;BME280_pressure;Samples;Min_cycle;Max_cycle;Signal;HPM_P1;HPM_P2
2023/12/10 00:00:35;;;;;;;0.10;0.10;;;;;;;14.00;80.15;94191.09;4323610;32;20285;-64
2023/12/10 00:03:01;;;;;;;0.00;0.00;;;;;;;14.09;79.06;94188.28;4326430;32;20248;-64
2023/12/10 00:05:28;;;;;;;0.83;0.00;;;;;;;14.15;78.67;94194.88;4318225;32;20188;-59
2023/12/10 00:07:54;;;;;;;0.20;0.20;;;;;;;11.19;88.71;94210.84;4295156;32;20200;-59
2023/12/10 00:10:19;;;;;;;0.00;0.00;;;;;;;9.64;99.82;94214.94;4304934;32;20174;-58
2023/12/10 00:12:46;;;;;;;0.20;0.20;;;;;;;8.44;100.00;94220.94;4343466;32;20249;-58
2023/12/10 00:15:14;;;;;;;0.10;0.10;;;;;;;7.62;100.00;94216.19;4314460;32;20203;-58
2023/12/10 00:17:39;;;;;;;0.00;0.00;;;;;;;7.23;100.00;94230.03;4345496;32;20186;-58
2023/12/10 00:20:12;;;;;;;0.00;0.00;;;;;;;7.10;100.00;94231.63;4344741;32;20288;-58
2023/12/10 00:22:39;;;;;;;0.20;0.20;;;;;;;7.00;100.00;94239.00;4322196;32;20253;-56
2023/12/10 00:25:07;;;;;;;0.10;0.10;;;;;;;6.98;100.00;94244.56;4324572;32;20459;-58
2023/12/10 00:27:35;;;;;;;0.00;0.00;;;;;;;6.99;100.00;94245.34;4265913;32;20287;-58
2023/12/10 00:30:01;;;;;;;0.00;0.00;;;;;;;6.96;100.00;94245.94;4323165;32;20282;-57
2023/12/10 00:32:28;;;;;;;0.00;0.00;;;;;;;6.86;100.00;94247.69;4342577;32;20286;-58
2023/12/10 00:34:54;;;;;;;0.00;0.00;;;;;;;6.86;100.00;94254.81;4335673;32;20199;-58
2023/12/10 00:37:22;;;;;;;0.10;0.10;;;;;;;6.83;100.00;94269.41;4297576;32;20286;-58
2023/12/10 00:39:48;;;;;;;0.00;0.00;;;;;;;6.82;100.00;94278.38;4327721;32;20208;-62
2023/12/10 00:42:18;;;;;;;0.07;0.07;;;;;;;6.90;100.00;94271.63;4291224;32;20279;-58
2023/12/10 00:44:50;;;;;;;0.10;0.10;;;;;;;6.75;100.00;94288.53;4306064;32;20346;-58
2023/12/10 00:47:16;;;;;;;0.10;0.10;;;;;;;6.70;100.00;94277.31;4320672;32;20292;-58
2023/12/10 00:49:43;;;;;;;0.10;0.10;;;;;;;6.72;100.00;94297.03;4317772;32;20282;-58
2023/12/10 00:52:10;;;;;;;0.00;0.00;;;;;;;6.64;100.00;94303.00;4283429;32;20337;-59
2023/12/10 00:54:37;;;;;;;0.10;0.10;;;;;;;6.72;100.00;94304.94;4289603;32;20294;-58
2023/12/10 00:57:04;;;;;;;0.00;0.00;;;;;;;6.80;100.00;94304.25;4319048;32;20345;-58
2023/12/10 00:59:30;;;;;;;0.00;0.00;;;;;;;6.68;100.00;94298.69;4339763;32;20321;-59
2023/12/10 01:02:00;;;;;;;0.63;0.37;;;;;;;6.63;100.00;94306.69;4311523;32;20298;-58
2023/12/10 01:04:29;;;;;;;0.40;0.40;;;;;;;6.66;100.00;94324.53;4315922;32;20295;-58
2023/12/10 01:06:55;;;;;;;0.00;0.00;;;;;;;6.59;100.00;94305.72;4328683;32;20309;-58
2023/12/10 01:09:20;;;;;;;0.10;0.10;;;;;;;6.59;100.00;94324.16;4327875;32;20290;-58
2023/12/10 01:11:47;;;;;;;0.00;0.00;;;;;;;6.55;100.00;94336.34;4320311;32;20305;-58
2023/12/10 01:14:13;;;;;;;0.20;0.20;;;;;;;6.68;100.00;94350.59;4323660;32;20236;-58
2023/12/10 01:16:40;;;;;;;1.40;0.40;;;;;;;6.59;100.00;94353.16;4302207;32;20381;-59
2023/12/10 01:19:08;;;;;;;0.10;0.10;;;;;;;6.72;100.00;94360.28;4333059;32;21741;-58
2023/12/10 01:21:34;;;;;;;0.10;0.10;;;;;;;6.76;100.00;94363.88;4328485;32;20302;-58
2023/12/10 01:24:03;;;;;;;0.13;0.13;;;;;;;6.78;100.00;94382.81;4317566;32;20294;-58
2023/12/10 01:26:30;;;;;;;0.00;0.00;;;;;;;6.70;100.00;94391.41;4332245;32;20326;-58
2023/12/10 01:28:56;;;;;;;0.03;0.03;;;;;;;6.65;100.00;94399.37;4338506;32;20319;-58
2023/12/10 01:31:22;;;;;;;0.10;0.10;;;;;;;6.67;100.00;94407.78;4316349;32;20294;-58
2023/12/10 01:33:48;;;;;;;0.00;0.00;;;;;;;6.83;100.00;94419.63;4314774;32;20358;-58
2023/12/10 01:36:32;;;;;;;1.20;0.53;;;;;;;6.70;100.00;94430.16;4309339;32;20340;-58
2023/12/10 01:38:59;;;;;;;0.47;0.10;;;;;;;6.65;100.00;94428.38;4316259;32;20467;-58
2023/12/10 01:41:27;;;;;;;0.00;0.00;;;;;;;6.62;100.00;94431.63;4326998;32;20327;-58
2023/12/10 01:43:57;;;;;;;0.03;0.03;;;;;;;6.62;100.00;94434.25;4326623;32;20285;-58
2023/12/10 01:46:23;;;;;;;0.30;0.30;;;;;;;6.49;100.00;94453.44;4327045;32;20322;-58
2023/12/10 01:48:53;;;;;;;0.00;0.00;;;;;;;6.55;100.00;94457.53;4325783;32;20291;-58
2023/12/10 01:51:25;;;;;;;0.00;0.00;;;;;;;6.53;100.00;94465.75;4332481;32;20302;-58
2023/12/10 01:53:54;;;;;;;0.13;0.13;;;;;;;6.50;100.00;94487.38;4333583;32;20322;-58
2023/12/10 01:56:21;;;;;;;0.07;0.07;;;;;;;6.48;100.00;94478.97;4327661;32;20321;-58
2023/12/10 01:58:46;;;;;;;0.00;0.00;;;;;;;6.47;100.00;94495.06;4322121;32;20310;-58
2023/12/10 02:01:13;;;;;;;0.10;0.10;;;;;;;6.49;100.00;94500.84;4306808;32;20387;-58
2023/12/10 02:03:41;;;;;;;0.00;0.00;;;;;;;6.50;100.00;94513.72;4336355;32;20197;-58
2023/12/10 02:06:08;;;;;;;0.40;0.30;;;;;;;6.53;100.00;94536.09;4341317;32;20297;-58
2023/12/10 02:08:33;;;;;;;0.40;0.20;;;;;;;6.45;100.00;94536.72;4303324;32;20325;-58
2023/12/10 02:11:00;;;;;;;0.00;0.00;;;;;;;6.54;100.00;94545.56;4317776;32;20290;-58
2023/12/10 02:13:27;;;;;;;0.20;0.20;;;;;;;6.45;100.00;94557.81;4326353;32;20197;-59
2023/12/10 02:15:57;;;;;;;0.00;0.00;;;;;;;6.57;100.00;94565.28;4325797;32;20282;-58
2023/12/10 02:18:23;;;;;;;0.00;0.00;;;;;;;6.46;100.00;94559.37;4327421;32;20297;-58
2023/12/10 02:20:48;;;;;;;0.20;0.20;;;;;;;6.31;100.00;94560.38;4347496;32;20320;-58
2023/12/10 02:23:41;;;;;;;0.00;0.00;;;;;;;6.37;100.00;94574.25;4324303;32;20222;-62
2023/12/10 02:26:08;;;;;;;0.20;0.20;;;;;;;6.36;100.00;94575.34;4352510;32;20438;-57
2023/12/10 02:28:35;;;;;;;0.00;0.00;;;;;;;6.21;100.00;94584.22;4337417;32;20291;-58
2023/12/10 02:31:05;;;;;;;0.00;0.00;;;;;;;6.15;100.00;94593.25;4321627;32;20309;-58
2023/12/10 02:33:32;;;;;;;0.00;0.00;;;;;;;6.17;100.00;94607.72;4325348;32;20282;-58
2023/12/10 02:35:59;;;;;;;0.10;0.10;;;;;;;6.06;100.00;94603.63;4322143;32;20286;-58
2023/12/10 02:38:26;;;;;;;1.43;0.27;;;;;;;6.01;100.00;94616.88;4295616;32;20397;-58
2023/12/10 02:40:54;;;;;;;0.30;0.30;;;;;;;5.99;100.00;94623.47;4306439;32;20345;-58
2023/12/10 02:43:21;;;;;;;0.20;0.20;;;;;;;5.99;100.00;94626.91;4320279;32;20304;-58
2023/12/10 02:45:48;;;;;;;0.07;0.07;;;;;;;6.00;100.00;94625.81;4317123;32;20281;-59
2023/12/10 02:48:17;;;;;;;0.40;0.40;;;;;;;6.06;100.00;94637.84;4339010;32;20367;-58
2023/12/10 02:50:44;;;;;;;0.10;0.10;;;;;;;5.92;100.00;94633.56;4331012;32;20274;-57
2023/12/10 02:53:09;;;;;;;0.00;0.00;;;;;;;5.96;100.00;94637.97;4324055;32;20290;-58
2023/12/10 02:55:35;;;;;;;0.00;0.00;;;;;;;5.99;100.00;94634.78;4296148;32;20373;-58
2023/12/10 02:58:01;;;;;;;0.00;0.00;;;;;;;6.01;100.00;94635.28;4319403;32;20209;-58
2023/12/10 03:00:27;;;;;;;0.40;0.40;;;;;;;5.97;100.00;94646.66;4335844;32;20290;-58
2023/12/10 03:02:54;;;;;;;0.13;0.13;;;;;;;5.93;100.00;94638.53;4318402;32;20224;-58
2023/12/10 03:05:22;;;;;;;0.00;0.00;;;;;;;5.96;100.00;94645.88;4324709;32;20286;-58
2023/12/10 03:07:47;;;;;;;0.20;0.20;;;;;;;5.88;100.00;94651.72;4314858;32;20286;-61
2023/12/10 03:10:12;;;;;;;0.00;0.00;;;;;;;5.85;100.00;94649.63;4298053;32;20321;-58
2023/12/10 03:12:38;;;;;;;0.17;0.17;;;;;;;5.82;100.00;94650.19;4317966;32;20212;-58
2023/12/10 03:15:05;;;;;;;0.20;0.20;;;;;;;5.80;100.00;94662.88;4326986;32;20205;-58
2023/12/10 03:17:31;;;;;;;0.30;0.23;;;;;;;5.79;100.00;94656.03;4308547;32;20243;-58
2023/12/10 03:19:58;;;;;;;0.63;0.63;;;;;;;5.76;100.00;94660.00;4323393;32;20287;-58
2023/12/10 03:22:23;;;;;;;0.00;0.00;;;;;;;5.66;100.00;94664.56;4324664;32;20369;-58
2023/12/10 03:24:50;;;;;;;0.53;0.20;;;;;;;5.66;100.00;94667.22;4328735;32;20282;-59
2023/12/10 03:27:17;;;;;;;0.27;0.20;;;;;;;5.60;100.00;94674.38;4298980;32;20253;-58
2023/12/10 03:29:43;;;;;;;0.10;0.10;;;;;;;5.71;100.00;94682.94;4318736;32;20287;-58
2023/12/10 03:32:10;;;;;;;0.10;0.10;;;;;;;5.71;100.00;94683.72;4313794;32;20353;-57
2023/12/10 03:34:36;;;;;;;0.73;0.43;;;;;;;5.78;100.00;94686.03;4329094;32;20276;-58
2023/12/10 03:37:03;;;;;;;0.53;0.43;;;;;;;5.64;100.00;94700.91;4339247;32;20293;-58
2023/12/10 03:39:30;;;;;;;0.37;0.37;;;;;;;5.70;100.00;94713.75;4337068;32;20332;-58
2023/12/10 03:41:56;;;;;;;0.00;0.00;;;;;;;5.81;100.00;94724.97;4348665;32;20290;-58
2023/12/10 03:44:25;;;;;;;0.57;0.40;;;;;;;5.78;100.00;94712.37;4303662;32;20360;-58
2023/12/10 03:46:52;;;;;;;0.60;0.23;;;;;;;5.80;100.00;94718.13;4316839;32;20295;-58
2023/12/10 03:49:23;;;;;;;0.40;0.40;;;;;;;5.82;100.00;94713.34;4308546;32;20281;-57
2023/12/10 03:51:50;;;;;;;0.83;0.50;;;;;;;5.92;100.00;94723.03;4320915;32;20310;-59
2023/12/10 03:54:19;;;;;;;0.70;0.70;;;;;;;5.97;100.00;94721.16;4304694;32;20396;-62
2023/12/10 03:56:46;;;;;;;0.30;0.30;;;;;;;6.02;100.00;94734.28;4345609;32;20337;-58
2023/12/10 03:59:13;;;;;;;1.43;1.03;;;;;;;5.97;100.00;94742.22;4340964;32;20314;-59
2023/12/10 04:01:43;;;;;;;3.47;0.73;;;;;;;6.08;100.00;94725.22;4320913;32;20295;-58
2023/12/10 04:04:13;;;;;;;0.17;0.17;;;;;;;6.04;100.00;94737.38;4335229;32;20330;-58
2023/12/10 04:06:42;;;;;;;1.13;1.03;;;;;;;5.93;100.00;94735.13;4348574;32;20401;-58
2023/12/10 04:09:09;;;;;;;6.63;0.87;;;;;;;5.94;100.00;94731.44;4300011;32;20353;-57
2023/12/10 04:11:35;;;;;;;2.47;1.03;;;;;;;5.79;100.00;94750.78;4294535;32;20290;-58
2023/12/10 04:14:01;;;;;;;0.30;0.30;;;;;;;5.83;100.00;94744.66;4332625;32;20304;-58
2023/12/10 04:16:30;;;;;;;0.23;0.23;;;;;;;5.83;100.00;94751.78;4322597;32;20214;-58
2023/12/10 04:18:56;;;;;;;0.57;0.57;;;;;;;5.80;100.00;94747.09;4299588;32;20317;-58
2023/12/10 04:21:25;;;;;;;0.20;0.20;;;;;;;5.91;100.00;94751.22;4320189;32;20317;-58
2023/12/10 04:23:51;;;;;;;4.47;0.93;;;;;;;5.69;100.00;94764.00;4285398;32;20194;-58
2023/12/10 04:26:18;;;;;;;0.30;0.30;;;;;;;5.91;100.00;94774.13;4332533;32;20296;-58
2023/12/10 04:28:46;;;;;;;0.10;0.10;;;;;;;5.84;100.00;94762.03;4305493;32;20194;-58
2023/12/10 04:31:12;;;;;;;0.10;0.10;;;;;;;5.81;100.00;94777.59;4304590;32;20352;-58
2023/12/10 04:33:44;;;;;;;0.07;0.07;;;;;;;5.86;100.00;94769.62;4333646;32;20334;-58
2023/12/10 04:36:14;;;;;;;0.20;0.20;;;;;;;5.79;100.00;94777.09;4339025;32;20299;-58
2023/12/10 04:38:41;;;;;;;1.87;0.33;;;;;;;5.82;100.00;94777.31;4319512;32;20377;-57
2023/12/10 04:41:06;;;;;;;1.03;0.60;;;;;;;5.84;100.00;94787.56;4323939;32;20399;-58
2023/12/10 04:43:31;;;;;;;0.10;0.10;;;;;;;5.81;100.00;94774.97;4320700;32;20338;-58
2023/12/10 04:45:58;;;;;;;1.07;0.30;;;;;;;5.81;100.00;94783.66;4328607;32;20212;-58
2023/12/10 04:48:25;;;;;;;1.00;0.27;;;;;;;5.86;100.00;94798.59;4335714;32;20201;-58
2023/12/10 04:50:52;;;;;;;1.13;0.53;;;;;;;5.86;100.00;94802.00;4325835;32;20290;-58
2023/12/10 04:53:18;;;;;;;0.40;0.40;;;;;;;5.82;100.00;94801.00;4330649;32;20314;-58
2023/12/10 04:55:45;;;;;;;1.33;0.83;;;;;;;5.86;100.00;94814.38;4316036;32;20301;-58
2023/12/10 04:58:12;;;;;;;0.00;0.00;;;;;;;5.93;100.00;94814.88;4298760;32;20286;-58
2023/12/10 05:00:38;;;;;;;1.70;0.93;;;;;;;5.91;100.00;94822.28;4323101;32;20314;-58
2023/12/10 05:03:05;;;;;;;0.47;0.47;;;;;;;5.90;100.00;94825.97;4307349;32;20303;-58
2023/12/10 05:05:31;;;;;;;1.17;0.93;;;;;;;5.90;100.00;94818.06;4316261;32;20418;-58
2023/12/10 05:07:59;;;;;;;9.03;1.00;;;;;;;5.89;100.00;94823.59;4316013;33;20284;-58
2023/12/10 05:10:25;;;;;;;0.63;0.60;;;;;;;5.78;100.00;94820.25;4291789;32;20227;-58
2023/12/10 05:12:51;;;;;;;0.93;0.37;;;;;;;5.80;100.00;94841.81;4315450;32;20328;-57
2023/12/10 05:15:17;;;;;;;1.40;0.73;;;;;;;5.71;100.00;94836.34;4316144;32;20290;-58
2023/12/10 05:17:44;;;;;;;0.40;0.40;;;;;;;5.70;100.00;94826.88;4309708;32;20214;-57
2023/12/10 05:20:12;;;;;;;0.37;0.37;;;;;;;5.61;100.00;94833.03;4303071;32;20284;-59
2023/12/10 05:22:38;;;;;;;1.27;0.80;;;;;;;5.72;100.00;94845.03;4320650;32;20291;-58
2023/12/10 05:25:04;;;;;;;7.10;0.90;;;;;;;5.61;100.00;94831.16;4319321;32;20317;-58
2023/12/10 05:27:32;;;;;;;5.27;1.07;;;;;;;5.57;100.00;94829.34;4307741;32;20202;-58
2023/12/10 05:30:00;;;;;;;6.77;0.80;;;;;;;5.62;100.00;94835.34;4306109;32;20306;-58
2023/12/10 05:32:30;;;;;;;0.97;0.60;;;;;;;5.63;100.00;94862.44;4310975;32;20286;-57
2023/12/10 05:34:56;;;;;;;2.10;1.20;;;;;;;5.56;100.00;94859.34;4315815;32;20298;-58
2023/12/10 05:37:24;;;;;;;1.90;1.53;;;;;;;5.61;100.00;94869.84;4309251;32;20291;-56
2023/12/10 05:39:49;;;;;;;8.90;1.50;;;;;;;5.52;100.00;94861.75;4299598;32;20348;-58
2023/12/10 05:42:16;;;;;;;0.63;0.63;;;;;;;5.66;100.00;94880.31;4309233;32;20291;-57
2023/12/10 05:44:44;;;;;;;2.17;1.17;;;;;;;5.67;100.00;94874.78;4324484;32;20229;-58
2023/12/10 05:47:11;;;;;;;1.93;1.07;;;;;;;5.86;100.00;94882.81;4276033;32;20291;-58
2023/12/10 05:49:38;;;;;;;1.63;0.80;;;;;;;5.76;100.00;94890.78;4263533;32;20303;-58
2023/12/10 05:52:06;;;;;;;2.03;0.90;;;;;;;5.79;100.00;94898.16;4308546;32;20310;-58
2023/12/10 05:54:32;;;;;;;2.73;1.23;;;;;;;5.89;100.00;94902.56;4303091;32;20314;-57
2023/12/10 05:56:59;;;;;;;5.60;1.10;;;;;;;5.89;100.00;94913.09;4309467;32;20299;-58
2023/12/10 05:59:25;;;;;;;1.33;1.27;;;;;;;5.92;100.00;94918.63;4322221;32;20300;-58
2023/12/10 06:01:51;;;;;;;10.80;0.87;;;;;;;5.85;100.00;94907.56;4303508;32;20288;-58
2023/12/10 06:04:19;;;;;;;12.73;2.30;;;;;;;5.95;100.00;94933.06;4332985;32;20321;-59
2023/12/10 06:06:45;;;;;;;2.90;1.43;;;;;;;5.92;100.00;94917.81;4299317;32;20254;-58
2023/12/10 06:09:14;;;;;;;0.70;0.70;;;;;;;5.86;100.00;94935.47;4283705;32;20297;-58
2023/12/10 06:11:41;;;;;;;1.93;1.83;;;;;;;5.80;100.00;94931.31;4305672;32;20287;-57
2023/12/10 06:14:08;;;;;;;0.50;0.50;;;;;;;5.89;100.00;94940.22;4314749;32;20369;-58
2023/12/10 06:16:33;;;;;;;1.33;0.97;;;;;;;5.86;100.00;94940.72;4282404;32;20299;-58
2023/12/10 06:18:59;;;;;;;3.40;1.13;;;;;;;5.81;100.00;94938.13;4322109;32;20386;-58
2023/12/10 06:21:25;;;;;;;2.43;1.03;;;;;;;5.79;100.00;94941.03;4301855;32;20229;-58
2023/12/10 06:23:52;;;;;;;0.27;0.27;;;;;;;5.88;100.00;94943.88;4308683;32;20249;-58
2023/12/10 06:26:20;;;;;;;0.53;0.53;;;;;;;5.91;100.00;94943.34;4318851;32;20282;-61
2023/12/10 06:28:48;;;;;;;0.60;0.60;;;;;;;5.93;100.00;94951.00;4296427;32;20295;-61
2023/12/10 06:31:20;;;;;;;1.40;1.30;;;;;;;5.88;100.00;94964.94;4310917;32;20356;-58
2023/12/10 06:33:49;;;;;;;4.17;1.50;;;;;;;5.80;100.00;94973.41;4304240;32;20305;-60
2023/12/10 06:36:17;;;;;;;1.47;0.97;;;;;;;5.89;100.00;94982.31;4316862;32;20421;-58
2023/12/10 06:38:42;;;;;;;1.50;1.17;;;;;;;5.93;100.00;94986.00;4293414;32;20347;-58
2023/12/10 06:41:09;;;;;;;1.50;1.00;;;;;;;5.82;100.00;94987.84;4303800;32;20290;-57
2023/12/10 06:43:36;;;;;;;16.07;1.77;;;;;;;5.86;100.00;94988.88;4298077;32;20228;-57
2023/12/10 06:46:05;;;;;;;3.60;1.20;;;;;;;5.88;100.00;94985.97;4309058;32;20290;-57
2023/12/10 06:48:35;;;;;;;1.00;0.90;;;;;;;5.89;100.00;94982.31;4308185;32;20356;-57
2023/12/10 06:51:03;;;;;;;1.63;1.27;;;;;;;5.98;100.00;94979.91;4304114;32;20318;-57
2023/12/10 06:53:35;;;;;;;2.50;0.90;;;;;;;6.04;100.00;94976.97;4305431;32;20274;-57
2023/12/10 06:56:02;;;;;;;2.03;1.37;;;;;;;5.92;100.00;94979.16;4303427;32;20359;-57
2023/12/10 06:58:29;;;;;;;0.87;0.73;;;;;;;6.02;100.00;94991.47;4306976;32;20290;-57
2023/12/10 07:00:56;;;;;;;0.90;0.50;;;;;;;5.95;100.00;94991.78;4308157;32;20310;-57
2023/12/10 07:03:23;;;;;;;3.90;1.13;;;;;;;5.98;100.00;95001.75;4303322;32;20292;-57
2023/12/10 07:05:48;;;;;;;3.73;1.37;;;;;;;5.96;100.00;94998.63;4304737;32;20367;-58
2023/12/10 07:08:15;;;;;;;8.80;0.63;;;;;;;6.50;100.00;94992.47;4305067;32;20306;-57
2023/12/10 07:10:44;;;;;;;13.27;1.00;;;;;;;6.62;100.00;95000.81;4318428;32;20310;-58
2023/12/10 07:13:10;;;;;;;0.40;0.40;;;;;;;6.65;100.00;95002.13;4307710;32;20378;-58
2023/12/10 07:15:35;;;;;;;10.83;2.17;;;;;;;6.65;100.00;95016.03;4313206;32;20420;-57
2023/12/10 07:18:02;;;;;;;7.67;1.00;;;;;;;6.96;100.00;95011.31;4316755;32;20278;-57
2023/12/10 07:20:30;;;;;;;0.40;0.40;;;;;;;6.98;100.00;95030.28;4311359;32;20288;-58
2023/12/10 07:22:57;;;;;;;2.63;0.57;;;;;;;7.30;100.00;95037.63;4323559;32;20281;-58
2023/12/10 07:25:24;;;;;;;1.40;0.77;;;;;;;7.02;100.00;95051.62;4305522;32;20271;-57
2023/12/10 07:27:52;;;;;;;2.90;1.17;;;;;;;7.69;100.00;95052.53;4308389;32;20349;-58
2023/12/10 07:30:17;;;;;;;0.73;0.73;;;;;;;7.42;100.00;95061.00;4324771;32;20346;-58
2023/12/10 07:32:44;;;;;;;0.90;0.90;;;;;;;7.28;100.00;95050.31;4317678;32;20276;-58
2023/12/10 07:35:13;;;;;;;0.90;0.90;;;;;;;7.14;100.00;95047.53;4316198;32;20194;-58
2023/12/10 07:37:38;;;;;;;0.97;0.97;;;;;;;7.18;100.00;95047.78;4283485;32;20287;-57
2023/12/10 07:40:05;;;;;;;5.60;0.90;;;;;;;7.38;100.00;95058.12;4276759;32;20377;-57
2023/12/10 07:42:32;;;;;;;1.10;0.97;;;;;;;7.36;100.00;95062.91;4316206;32;20245;-58
2023/12/10 07:45:00;;;;;;;3.07;1.20;;;;;;;7.69;100.00;95071.78;4320648;32;20358;-57
2023/12/10 07:47:27;;;;;;;1.20;1.17;;;;;;;7.67;100.00;95078.44;4293186;32;20291;-56
2023/12/10 07:49:53;;;;;;;3.03;0.83;;;;;;;8.14;100.00;95081.03;4297793;32;20275;-57
2023/12/10 07:52:19;;;;;;;3.10;0.60;;;;;;;8.39;100.00;95076.53;4306731;32;20267;-56
2023/12/10 07:54:44;;;;;;;3.93;1.07;;;;;;;8.48;100.00;95083.53;4296953;32;20292;-57
2023/12/10 07:57:12;;;;;;;0.63;0.63;;;;;;;8.19;98.53;95085.47;4299385;32;20349;-57
2023/12/10 07:59:39;;;;;;;1.87;1.07;;;;;;;7.86;97.41;95097.75;4301300;32;20190;-58
2023/12/10 08:02:09;;;;;;;2.20;1.13;;;;;;;7.43;98.95;95108.22;4326117;32;20201;-57
2023/12/10 08:04:36;;;;;;;1.27;1.03;;;;;;;7.45;100.00;95107.94;4277704;32;20294;-58
2023/12/10 08:07:03;;;;;;;0.63;0.63;;;;;;;7.03;100.00;95105.94;4301388;32;20438;-58
2023/12/10 08:09:30;;;;;;;2.90;1.07;;;;;;;6.81;100.00;95103.72;4304580;32;20271;-58
2023/12/10 08:11:56;;;;;;;0.40;0.40;;;;;;;6.79;100.00;95114.53;4312841;32;20360;-57
2023/12/10 08:14:27;;;;;;;5.57;1.50;;;;;;;6.57;100.00;95129.97;4294199;32;20289;-58
2023/12/10 08:16:55;;;;;;;0.70;0.70;;;;;;;6.59;100.00;95134.97;4281612;32;20343;-57
2023/12/10 08:19:21;;;;;;;2.03;1.00;;;;;;;6.58;100.00;95142.09;4281660;32;20299;-58
2023/12/10 08:21:46;;;;;;;1.57;1.27;;;;;;;6.47;100.00;95143.97;4226630;32;20292;-59
2023/12/10 08:24:14;;;;;;;0.73;0.73;;;;;;;6.46;100.00;95142.41;4242555;32;20376;-58
2023/12/10 08:26:40;;;;;;;5.50;1.73;;;;;;;6.48;100.00;95152.66;4292439;32;20269;-58
2023/12/10 08:29:06;;;;;;;10.33;1.17;;;;;;;6.62;100.00;95148.41;4285317;32;20279;-58
2023/12/10 08:31:33;;;;;;;1.03;1.03;;;;;;;6.52;100.00;95161.59;4282216;32;20193;-57
2023/12/10 08:34:00;;;;;;;5.70;1.20;;;;;;;6.53;100.00;95161.34;4315665;32;20353;-58
2023/12/10 08:36:31;;;;;;;9.97;1.27;;;;;;;6.57;100.00;95172.12;4281525;32;20349;-58
2023/12/10 08:39:00;;;;;;;0.80;0.70;;;;;;;6.69;100.00;95177.84;4291931;32;20421;-58
2023/12/10 08:41:28;;;;;;;0.57;0.57;;;;;;;6.51;100.00;95178.47;4319491;32;20281;-58
2023/12/10 08:43:55;;;;;;;0.70;0.70;;;;;;;6.57;100.00;95176.63;4298351;32;20270;-57
2023/12/10 08:46:22;;;;;;;1.63;1.53;;;;;;;6.54;100.00;95180.56;4328611;32;20311;-58
2023/12/10 08:48:50;;;;;;;1.07;0.90;;;;;;;6.61;100.00;95199.53;4292268;32;20402;-58
2023/12/10 08:51:19;;;;;;;1.03;1.03;;;;;;;6.53;100.00;95187.69;4285139;32;20309;-58
2023/12/10 08:53:46;;;;;;;1.33;1.23;;;;;;;6.63;100.00;95200.03;4334972;32;20330;-58
2023/12/10 08:56:11;;;;;;;0.73;0.73;;;;;;;6.66;100.00;95196.84;4322760;32;20333;-58
2023/12/10 08:58:37;;;;;;;4.03;1.37;;;;;;;6.73;100.00;95186.81;4314090;32;20358;-58
2023/12/10 09:01:05;;;;;;;0.93;0.70;;;;;;;6.70;99.97;95192.63;4289955;32;20195;-58
2023/12/10 09:03:31;;;;;;;0.53;0.53;;;;;;;6.71;99.61;95194.19;4313510;32;20314;-58
2023/12/10 09:06:00;;;;;;;7.00;1.20;;;;;;;6.83;99.74;95191.25;4299878;32;20267;-59
2023/12/10 09:08:30;;;;;;;1.30;0.93;;;;;;;6.77;99.03;95190.47;4267390;32;20299;-59
2023/12/10 09:10:56;;;;;;;8.90;1.13;;;;;;;6.90;98.55;95200.41;4252236;32;20368;-58
2023/12/10 09:13:23;;;;;;;1.57;1.47;;;;;;;6.91;97.27;95201.19;4309005;32;20290;-59
2023/12/10 09:15:50;;;;;;;0.90;0.67;;;;;;;6.85;96.55;95200.47;4308123;32;20182;-58
2023/12/10 09:18:17;;;;;;;2.30;1.37;;;;;;;6.89;96.21;95204.09;4288514;32;20313;-58
2023/12/10 09:20:44;;;;;;;2.00;0.63;;;;;;;6.92;96.63;95192.22;4292186;32;20315;-58
2023/12/10 09:23:11;;;;;;;5.13;1.20;;;;;;;7.02;94.58;95183.47;4305160;32;20297;-58
2023/12/10 09:25:37;;;;;;;0.53;0.53;;;;;;;7.01;94.73;95181.91;4282072;32;22227;-58
2023/12/10 09:28:03;;;;;;;0.53;0.53;;;;;;;6.99;94.36;95195.34;4292052;32;20209;-58
2023/12/10 09:30:31;;;;;;;6.77;1.27;;;;;;;7.02;94.86;95209.84;4286247;32;20356;-58
2023/12/10 09:32:58;;;;;;;1.80;1.00;;;;;;;7.05;93.20;95196.91;4306896;32;20208;-58
2023/12/10 09:35:27;;;;;;;0.67;0.67;;;;;;;7.02;93.21;95209.84;4301755;32;20285;-57
2023/12/10 09:37:57;;;;;;;3.10;2.33;;;;;;;7.07;92.11;95204.53;4261604;32;20298;-59
2023/12/10 09:40:26;;;;;;;1.37;1.27;;;;;;;7.12;92.00;95200.00;4238523;32;20374;-57
2023/12/10 09:42:52;;;;;;;8.73;0.97;;;;;;;7.44;98.20;95207.44;4210394;32;20318;-57
2023/12/10 09:45:18;;;;;;;1.37;1.27;;;;;;;8.16;92.88;95205.72;4267427;32;20284;-58
2023/12/10 09:47:44;;;;;;;2.07;1.13;;;;;;;8.20;88.00;95219.16;4279231;32;20296;-56
2023/12/10 09:50:11;;;;;;;0.70;0.70;;;;;;;8.31;87.25;95220.66;4297654;32;20373;-55
2023/12/10 09:52:37;;;;;;;3.50;2.13;;;;;;;8.68;85.26;95214.69;4258661;32;20365;-58
2023/12/10 09:55:05;;;;;;;0.83;0.60;;;;;;;8.65;86.54;95211.81;4260928;32;20327;-58
2023/12/10 09:57:31;;;;;;;1.80;1.57;;;;;;;8.68;84.89;95216.53;4278622;32;20334;-57
2023/12/10 10:00:00;;;;;;;1.50;1.40;;;;;;;8.49;83.09;95219.16;4246693;33;20288;-58
2023/12/10 10:02:33;;;;;;;3.83;1.47;;;;;;;8.70;83.68;95217.84;4246476;32;20366;-57
2023/12/10 10:05:00;;;;;;;5.83;0.87;;;;;;;8.85;85.36;95215.00;4294832;32;20429;-57
2023/12/10 10:07:29;;;;;;;4.50;0.90;;;;;;;8.94;83.60;95225.69;4290729;32;20284;-58
2023/12/10 10:09:54;;;;;;;4.17;1.23;;;;;;;8.63;82.02;95217.38;4314700;32;20373;-57
2023/12/10 10:12:29;;;;;;;1.70;0.73;;;;;;;8.43;81.27;95217.62;4297624;32;20282;-58
2023/12/10 10:14:58;;;;;;;2.00;0.90;;;;;;;8.41;81.71;95232.97;4280421;32;20283;-59
2023/12/10 10:17:38;;;;;;;1.23;0.90;;;;;;;8.21;83.13;95226.03;4291603;32;20351;-59
2023/12/10 10:20:05;;;;;;;0.80;0.50;;;;;;;8.21;82.68;95237.37;4292327;32;20362;-59
2023/12/10 10:22:32;;;;;;;0.70;0.70;;;;;;;8.17;83.68;95232.94;4303761;32;20313;-59
2023/12/10 10:25:03;;;;;;;1.57;1.17;;;;;;;8.14;83.12;95236.13;4309502;32;20221;-59
2023/12/10 10:27:33;;;;;;;1.33;0.60;;;;;;;8.25;82.90;95232.31;4251694;32;20324;-59
2023/12/10 10:30:04;;;;;;;2.20;1.10;;;;;;;8.11;83.09;95236.69;4272544;32;20243;-59
2023/12/10 10:32:33;;;;;;;0.27;0.27;;;;;;;8.19;82.85;95221.00;4311432;32;20338;-59
2023/12/10 10:35:04;;;;;;;2.20;0.90;;;;;;;8.21;83.20;95226.81;4316782;32;20338;-59
2023/12/10 10:37:31;;;;;;;4.47;0.87;;;;;;;8.20;83.12;95225.22;4305810;32;20270;-58
2023/12/10 10:39:58;;;;;;;0.73;0.73;;;;;;;8.22;82.41;95228.38;4299544;32;20283;-59
2023/12/10 10:42:25;;;;;;;6.43;1.17;;;;;;;8.27;82.49;95233.62;4308922;32;20271;-59
2023/12/10 10:44:54;;;;;;;4.37;1.37;;;;;;;8.45;82.86;95231.34;4296992;32;20245;-58
2023/12/10 10:47:22;;;;;;;0.73;0.73;;;;;;;8.40;82.07;95224.25;4319336;32;20288;-59
2023/12/10 10:49:52;;;;;;;6.60;1.03;;;;;;;8.57;81.50;95242.31;4273475;32;20339;-62
2023/12/10 10:52:27;;;;;;;4.60;1.63;;;;;;;8.50;81.13;95231.31;4298095;32;20193;-59
2023/12/10 10:54:56;;;;;;;0.20;0.20;;;;;;;8.53;82.10;95243.94;4286233;32;20186;-59
2023/12/10 10:57:45;;;;;;;0.43;0.37;;;;;;;8.29;81.79;95225.41;4324175;32;20248;-60
2023/12/10 11:00:28;;;;;;;2.67;1.07;;;;;;;8.52;83.22;95229.16;4316272;32;20269;-59
2023/12/10 11:02:56;;;;;;;0.53;0.53;;;;;;;8.45;81.66;95226.06;4250797;32;20241;-59
2023/12/10 11:05:34;;;;;;;3.37;0.67;;;;;;;8.43;83.07;95209.69;4296389;32;20304;-60
2023/12/10 11:08:06;;;;;;;0.80;0.80;;;;;;;8.55;82.17;95215.34;4304611;32;20202;-59
2023/12/10 11:10:34;;;;;;;1.03;0.77;;;;;;;8.64;82.50;95221.59;4299002;32;20207;-62
2023/12/10 11:13:01;;;;;;;0.80;0.50;;;;;;;8.78;82.32;95214.53;4277129;32;20237;-59
2023/12/10 11:15:31;;;;;;;0.23;0.23;;;;;;;8.68;82.04;95209.41;4312353;32;20183;-60
2023/12/10 11:18:02;;;;;;;7.53;1.23;;;;;;;8.63;81.62;95206.81;4274953;32;20258;-59
2023/12/10 11:20:52;;;;;;;0.37;0.37;;;;;;;8.53;83.46;95194.47;4303487;32;20237;-59
2023/12/10 11:23:21;;;;;;;0.20;0.20;;;;;;;8.53;82.62;95202.41;4296366;32;20217;-59
2023/12/10 11:25:47;;;;;;;8.40;1.50;;;;;;;8.53;82.68;95188.41;4303203;32;20303;-59
2023/12/10 11:28:20;;;;;;;0.30;0.30;;;;;;;8.42;83.32;95197.53;4315621;32;20187;-59
2023/12/10 11:30:49;;;;;;;2.50;0.80;;;;;;;8.28;83.19;95208.00;4274572;33;20313;-59
2023/12/10 11:33:16;;;;;;;6.60;1.23;;;;;;;8.19;83.66;95199.87;4327241;32;20283;-59
2023/12/10 11:35:43;;;;;;;1.53;1.40;;;;;;;8.27;83.39;95199.28;4278575;32;21373;-59